الصفحة الرئيسية
METAR-TAF:

METAR-TAF

مطار :

موريشيوس, موريشيوس

مطار سير سيووساغور رامغولام الدولي

دائرة عرض: 20-26S, خط طول: 057-40E, ارتفاع: 55 متر

مراقبة الطقس الحالي

تاريخ ووقت الإصدار 1ساعة و 4 دقيقة قبل الساعة 02:00UTC
ريح 10 عقدة من الشرق/الشمال الشرقي
درجة الحرارة 25°درجة مئوية
الرطوبة 83%
ضغط 1014 hPa
الرؤية 10 كم أو أكثر
غيوم مفككة على ارتفاع 1400 قدم
زخات في الجوار

METAR: FIMP 220200Z 06010KT 9999 VCSH BKN014 25/22 Q1014

زمن: 07:04 (03:04 UTC)

توقعات

تاريخ ووقت الإصدار 3ساعات و 34 دقيقة قبل الساعة 23:30UTC
التوقعات صالحة من22 الساعة 00 UTC إلى 23 الساعة 06 UTC
ريح 10 عقدة من الشرق/الشمال الشرقي
الرؤية 10 كم أو أكثر
غيوم متفرقة على ارتفاع 1500 قدم
مؤقت
من 22 الساعة 00 UTC إلى 22 الساعة 06 UTC
الرؤية: 5000 متر
غيوم قليلة على ارتفاع 800 قدم
غيوم مفككة على ارتفاع 1400 قدم
زخات من الأمطار الخفيفة

TAF: FIMP 212330Z 2200/2306 07010KT 9999 SCT015 TEMPO 2200/2206 5000 -SHRA FEW008 BKN014

أرصاد الطقس والتوقعات من أكثر من 4000 مطار (تقارير الطقس للمطار METAR والتنبؤ بالطقس بالمطارTAF).

المحطات المتاحة هي النقط الصفراء والحمراء على الخريطة.

حرك المؤشر فوق النقطة لمعرفة اسم المحطة.

ثم انقر لمعرفة أرصاد وتوقعات الطقس.

لتغيير الخارطة: اضغط على الأزرار الخضراء مع رمز الصليب الأسود للتكبير. على الزر الأخضر مع شرطة للتصغير، أو على الأسهم الخضراء للخرائط المجاورة.


METAR-TAF: